• Join FlightAware (Why Join?)
  • Login
  • US Flag 
11:49PM EDT


 

Airport Tracker/Info


-or-


 

Live Flight TrackerFlight Track Log ✈ RLI811 ✈ 10-Jul-2013 ✈ KDXR - KLEW

Flight Track Log - Related Links

Times and Time Zones

All times are in EDT time to prevent confusion due to time zone crossing. See the RLI811 flight status page for this flight to view local times or setup timezone preferences in your user account.

Time Position Orientation Groundspeed Altitude Reporting Facility
EDT Latitude Longitude Course Direction KTS MPH feet Rate Location/Type
11:28AM 42.2622 -72.7794 40° Northeast 204 235 9,500  Level Boston Center
11:29AM 42.3022 -72.7264 44° Northeast 203 234 9,500  Level Boston Center
11:29AM 42.3397 -72.6761 45° Northeast 221 254 9,500  Level Boston Center
11:30AM 42.3772 -72.6228 46° Northeast 216 249 9,500  Level Boston Center
11:31AM 42.4192 -72.5694 43° Northeast 203 234 9,500  Level Boston Center
11:32AM 42.4586 -72.5161 45° Northeast 198 228 9,500  Level Boston Center
11:33AM 42.5652 -72.1029 40° Northeast  Level Estimated
11:33AM 42.4983 -72.4625 45° Northeast 198 228 9,500  Level Boston Center
11:34AM 42.5381 -72.4092 45° Northeast 198 228 9,500  Level Boston Center
11:35AM 42.5775 -72.3556 45° Northeast 198 228 9,500  Level Boston Center
11:36AM 42.6169 -72.2992 46° Northeast 198 228 9,500  Level Boston Center
11:37AM 42.6525 -72.2481 47° Northeast 198 228 9,500  Level Boston Center
11:38AM 42.6981 -72.1886 44° Northeast 198 228 9,500  Level Boston Center
11:39AM 42.7292 -72.1347 52° Northeast 198 228 9,500  Level Boston Center
11:40AM 42.7708 -72.0725 48° Northeast 198 228 9,500  Level Boston Center
11:41AM 42.8081 -72.0269 42° Northeast 198 228 9,500  Level Boston Center
11:42AM 42.8539 -71.9728 41° Northeast 198 228 9,500  Level Boston Center
11:43AM 42.8911 -71.9272 42° Northeast 193 222 9,500  Level Boston Center
11:44AM 42.9283 -71.8842 40° Northeast 193 222 9,500  Level Boston Center
11:45AM 42.9719 -71.8272 44° Northeast 193 222 9,500  Level Boston Center
11:46AM 43.0194 -71.7700 41° Northeast 193 222 9,500  Level Boston Center
11:47AM 43.0525 -71.7214 47° Northeast 193 222 9,500  Level Boston Center
11:48AM 43.0917 -71.6583 50° Northeast 193 222 9,500  Level Boston Center
11:49AM 43.1167 -71.6167 51° Northeast 200 230 9,500  Level KA90
11:50AM 43.1500 -71.5500 56° Northeast 207 238 9,500  Level KA90
11:51AM 43.1833 -71.5000 48° Northeast 201 231 9,500  Level KA90
11:52AM 43.2333 -71.4500 36° Northeast 204 235 9,500  Level KA90
11:53AM 43.2667 -71.3833 56° Northeast 205 236 9,500  Level KA90
11:54AM 43.3167 -71.3333 36° Northeast 203 234 9,500 -240 Level KA90
11:55AM 43.3500 -71.2833 47° Northeast 211 243 9,100 -300 Descending KA90
11:56AM 43.4000 -71.2333 36° Northeast 217 250 8,900 -240 Descending KA90
11:58AM 43.4400 -71.1375 60° Northeast  Level FlightAware Approximate
12:05PM 43.6861 -70.7104 46° Northeast  Level FlightAware Approximate
12:06PM 43.7249 -70.6544 47° Northeast  Level FlightAware Approximate
12:07PM 43.7654 -70.6013 36° Northeast  Level FlightAware Approximate
12:08PM 43.8133 -70.5667 North  Level FlightAware Approximate
12:09PM 43.8538 -70.5148 45° Northeast  Level FlightAware Approximate
12:10PM 43.8932 -70.4596 45° Northeast  Level FlightAware Approximate
12:11PM 43.9355 -70.4087 40° Northeast  Level FlightAware Approximate
12:12PM 43.9784 -70.3586 40° Northeast  Level FlightAware Approximate
12:13PM 44.0189 -70.3050 47° Northeast  Level FlightAware Approximate
12:14PM 44.0333 -70.2833 47° Northeast  Level FlightAware Approximate
12:15PM 44.0485 -70.2835 47° Northeast  Level Estimated
12:16PM 44.0485 -70.2835 47° Northeast  Level Estimated
12:17PM 44.0485 -70.2835 47° Northeast  Level Estimated
12:18PM 44.0485 -70.2835 47° Northeast  Level Estimated
12:19PM 44.0485 -70.2835 47° Northeast  Level Estimated
12:20PM 44.0485 -70.2835 47° Northeast  Level Estimated
12:21PM 44.0485 -70.2835 47° Northeast  Level Estimated
12:22PM 44.0485 -70.2835 47° Northeast  Level Estimated
12:23PM 44.0485 -70.2835 47° Northeast  Level Estimated
12:24PM 44.0485 -70.2835 47° Northeast  Level Estimated
12:25PM 44.0485 -70.2835 47° Northeast  Level Estimated
12:26PM 44.0485 -70.2835 47° Northeast  Level Estimated
12:27PM 44.0485 -70.2835 47° Northeast  Level Estimated
12:28PM 44.0485 -70.2835 47° Northeast  Level Estimated
12:29PM 44.0485 -70.2835 47° Northeast  Level Estimated
12:30PM 44.0485 -70.2835 47° Northeast  Level Estimated
12:31PM 44.0485 -70.2835 47° Northeast  Level Estimated
12:32PM 44.0485 -70.2835 47° Northeast  Level Estimated